EDTL

Lahr Airport

Germany
METAR EDTL 171350Z 20005KT 9999 FEW020 BKN046 03/00 Q1025
Observed Flight Rules
Dec-17 @ 13:50 UTC (13 hours ago) Visual Flight Rules
Wind Visibility Clouds
200° at 5 knots 10,000+ meters
  • Few at 2,000' AGL
  • Broken at 4,600' AGL
Temperatures Readings
Current 3°C / 37°F
Dewpoint 0°C / 32°F
Humidity 81%
Altimeter 30.27" Hg
Pressure 1025 hPa
Elevation 156
METAR EDTL 171350Z 20005KT 9999 FEW020 BKN046 03/00 Q1025
Observed Flight Rules
Dec-17 @ 13:50 UTC
(13 hours ago)
VFR
Wind Visibility
200° at 5 knots 10,000+ meters
Clouds
  • Few at 2,000' AGL
  • Broken at 4,600' AGL
Temperature Dewpoint
3°C / 37°F 0°C / 32°F
Humidity Altimeter Pressure
81% 30.27" Hg 1025 hPa